Kalliopi L — A8GS8 — position and weather

sailwx.info

Track history (hours):
 
Tides and Currents Weather Stations Pressure Air Temp Water Temp Dewpoint Dewpoint Depression Visibility Wind Speed Wind Dir Waves Ship Positions

Kalliopi L

Last reported at 2017-Sep-25 06:26 UTC. Time now 2017-Oct-17 22:31 UTC.
Position N 46°12' W 124°54'.
Warning: this ship's position is 22 days out of date.

Length 224 m; draft 12.3 m.

Type: Cargo ship. MMSI: 636012640.

Date/timePositionNaut miles runAvg speedWind from/ knotsBaromVisibWave heightAir tempDewpointWater temp
2017-Sep-25 06:26N 46°12' W 124°54'511.6
2017-Sep-25 06:01N 46°12' W 124°47'611.8
2017-Sep-25 05:30N 46°12' W 124°38'611.4
2017-Sep-25 05:00N 46°12' W 124°30'611.4
2017-Sep-25 04:30N 46°13' W 124°22'810.1
2017-Sep-25 03:41N 46°13' W 124°10'211.5
2017-Sep-25 03:31N 46°14' W 124°07'611.1
2017-Sep-25 03:00N 46°14' W 123°59'7 9.3
2017-Sep-25 02:14N 46°12' W 123°49'2 8.2
2017-Sep-25 02:00N 46°13' W 123°47'610.5
2017-Sep-25 01:28N 46°15' W 123°40'510.4
2017-Sep-25 01:00N 46°16' W 123°33'4 8.1
2017-Sep-25 00:30N 46°15' W 123°27'3 6.9
2017-Sep-25 00:00N 46°12' W 123°26'3 6.0
2017-Sep-24 23:30N 46°09' W 123°24'5 9.1
2017-Sep-24 23:00N 46°09' W 123°17'510.0
2017-Sep-24 22:30N 46°11' W 123°11'5 9.8
2017-Sep-24 22:00N 46°10' W 123°04'510.2
2017-Sep-24 21:30N 46°07' W 122°58'1 1.3
2017-Sep-24 20:58N 46°06' W 122°57'0 0.0
2017-Sep-24 20:22N 46°06' W 122°57'0 0.0
2017-Sep-24 19:58N 46°06' W 122°57'0 0.0
2017-Sep-24 19:10N 46°06' W 122°57'0 0.0
2017-Sep-24 18:56N 46°06' W 122°57'0 0.0
2017-Sep-24 18:20N 46°06' W 122°57'0 0.0
2017-Sep-24 17:59N 46°06' W 122°57'0 0.0
2017-Sep-24 17:29N 46°06' W 122°57'0 0.0
2017-Sep-24 16:59N 46°06' W 122°57'0 0.0
2017-Sep-24 16:22N 46°06' W 122°57'0 0.0
2017-Sep-24 15:58N 46°06' W 122°57'0 0.0
2017-Sep-24 15:28N 46°06' W 122°57'0 0.0
2017-Sep-24 14:58N 46°06' W 122°57'0 0.0
2017-Sep-24 14:28N 46°06' W 122°57'0 0.0
2017-Sep-24 13:58N 46°06' W 122°57'0 0.0
2017-Sep-24 13:28N 46°06' W 122°57'0 0.0
2017-Sep-24 12:58N 46°06' W 122°57'0 0.0
2017-Sep-24 12:16N 46°06' W 122°57'0 0.0
2017-Sep-24 11:37N 46°06' W 122°57'0 0.0
2017-Sep-24 11:28N 46°06' W 122°57'0 0.0
2017-Sep-24 10:52N 46°06' W 122°57'0 0.0
2017-Sep-24 10:19N 46°06' W 122°57'0 0.0
2017-Sep-24 09:55N 46°06' W 122°57'0 0.0
2017-Sep-24 09:25N 46°06' W 122°57'0 0.0
2017-Sep-24 08:52N 46°06' W 122°57'0 0.0
2017-Sep-24 08:25N 46°06' W 122°57'0 0.0
2017-Sep-24 07:58N 46°06' W 122°57'0 0.0
2017-Sep-24 07:28N 46°06' W 122°57'0 0.0
2017-Sep-24 06:58N 46°06' W 122°57'0 0.0
2017-Sep-24 06:28N 46°06' W 122°57'0 0.0
2017-Sep-24 05:58N 46°06' W 122°57'0 0.0
2017-Sep-24 05:25N 46°06' W 122°57'0 0.0
2017-Sep-24 04:49N 46°06' W 122°57'0 0.0
2017-Sep-24 04:25N 46°06' W 122°57'0 0.0
2017-Sep-24 03:52N 46°06' W 122°57'0 0.0
2017-Sep-24 03:28N 46°06' W 122°57'0 0.0
2017-Sep-24 02:58N 46°06' W 122°57'0 0.0
2017-Sep-24 02:28N 46°06' W 122°57'0 0.0
2017-Sep-24 01:58N 46°06' W 122°57'0 0.0
2017-Sep-24 01:25N 46°06' W 122°57'0 0.0
2017-Sep-24 00:58N 46°06' W 122°57'0 0.0
2017-Sep-24 00:28N 46°06' W 122°57'0 0.0
2017-Sep-23 23:58N 46°06' W 122°57'0 0.0
2017-Sep-23 23:22N 46°06' W 122°57'0 0.0
2017-Sep-23 22:58N 46°06' W 122°57'0 0.0
2017-Sep-23 22:25N 46°06' W 122°57'0 0.0
2017-Sep-23 21:52N 46°06' W 122°57'0 0.0
2017-Sep-23 21:19N 46°06' W 122°57'0 0.0
2017-Sep-23 20:19N 46°06' W 122°57'0 0.0
2017-Sep-23 19:58N 46°06' W 122°57'0 0.0
2017-Sep-22 01:58N 46°06' W 122°57'0 0.0
2017-Sep-22 01:28N 46°06' W 122°57'0 0.0
2017-Sep-22 00:58N 46°06' W 122°57'0 0.0
2017-Sep-22 00:28N 46°06' W 122°57'0 0.0
2017-Sep-21 23:58N 46°06' W 122°57'0 0.0
2017-Sep-21 23:22N 46°06' W 122°57'0 0.0
2017-Sep-21 22:55N 46°06' W 122°57'0 0.0
2017-Sep-21 22:28N 46°06' W 122°57'0 0.0
2017-Sep-21 21:58N 46°06' W 122°57'0 0.0
2017-Sep-21 21:28N 46°06' W 122°57'0 0.0
2017-Sep-21 20:58N 46°06' W 122°57'0 0.0
2017-Sep-21 20:28N 46°06' W 122°57'0 0.0
2017-Sep-21 19:58N 46°06' W 122°57'0 0.0
2017-Sep-21 19:28N 46°06' W 122°57'0 0.0
2017-Sep-21 18:58N 46°06' W 122°57'0 0.0
2017-Sep-21 17:55N 46°06' W 122°57'0 0.0
2017-Sep-21 17:28N 46°06' W 122°57'0 0.0
2017-Sep-21 16:58N 46°06' W 122°57'0 0.0
2017-Sep-21 16:22N 46°06' W 122°57'0 0.1
2017-Sep-21 15:55N 46°06' W 122°57'1 1.3
2017-Sep-21 15:30N 46°06' W 122°57'2 4.7
2017-Sep-21 15:00N 46°05' W 122°54'3 5.8
2017-Sep-21 14:30N 46°02' W 122°53'0 0.9
2017-Sep-21 13:59N 46°02' W 122°52'0 0.1
2017-Sep-21 13:29N 46°02' W 122°52'0 0.0
2017-Sep-21 12:59N 46°02' W 122°52'0 0.1
2017-Sep-21 12:29N 46°02' W 122°52'0 0.0
2017-Sep-21 11:59N 46°02' W 122°52'0 0.0
2017-Sep-21 11:29N 46°02' W 122°52'0 0.0
2017-Sep-21 10:59N 46°02' W 122°52'0 0.0
2017-Sep-21 10:26N 46°02' W 122°52'0 0.0
2017-Sep-21 09:59N 46°02' W 122°52'0 0.0
2017-Sep-21 09:29N 46°02' W 122°52'0 0.0
2017-Sep-21 08:59N 46°02' W 122°52'0 0.0
2017-Sep-21 08:26N 46°02' W 122°52'0 0.0
2017-Sep-21 07:59N 46°02' W 122°52'0 0.0
2017-Sep-21 07:29N 46°02' W 122°52'0 0.0
2017-Sep-21 06:50N 46°02' W 122°52'0 0.0
2017-Sep-21 06:26N 46°02' W 122°52'0 0.0
2017-Sep-21 05:59N 46°02' W 122°52'0 0.0
2017-Sep-21 05:29N 46°02' W 122°52'0 0.1
2017-Sep-21 04:56N 46°02' W 122°52'0 0.1
2017-Sep-21 04:26N 46°02' W 122°52'0 0.0
2017-Sep-21 03:50N 46°02' W 122°52'0 0.0
2017-Sep-21 03:29N 46°02' W 122°52'0 0.1
2017-Sep-21 02:56N 46°02' W 122°52'0 0.0
2017-Sep-21 01:35N 46°02' W 122°52'0 0.1
2017-Sep-21 01:29N 46°02' W 122°52'0 0.0
2017-Sep-21 00:59N 46°02' W 122°52'0 0.0
2017-Sep-21 00:20N 46°02' W 122°52'0 0.1
2017-Sep-20 23:59N 46°02' W 122°52'0 0.1
2017-Sep-20 23:26N 46°02' W 122°52'0 0.0
2017-Sep-20 22:56N 46°02' W 122°52'0 0.0
2017-Sep-20 22:29N 46°02' W 122°52'0 0.0
2017-Sep-20 21:53N 46°02' W 122°52'0 0.0
2017-Sep-20 21:20N 46°02' W 122°52'0 0.0
2017-Sep-20 20:59N 46°02' W 122°52'0 0.0
2017-Sep-20 20:26N 46°02' W 122°52'0 0.0
2017-Sep-20 19:59N 46°02' W 122°52'0 0.0
2017-Sep-20 19:29N 46°02' W 122°52'0 0.0
2017-Sep-20 18:56N 46°02' W 122°52'0 0.0
2017-Sep-20 18:29N 46°02' W 122°52'0 0.0
2017-Sep-20 17:59N 46°02' W 122°52'0 0.0
2017-Sep-20 17:29N 46°02' W 122°52'0 0.0
2017-Sep-20 16:59N 46°02' W 122°52'0 0.0
2017-Sep-20 16:29N 46°02' W 122°52'0 0.0
2017-Sep-20 15:59N 46°02' W 122°52'0 0.0
2017-Sep-20 15:26N 46°02' W 122°52'0 0.0
2017-Sep-20 14:59N 46°02' W 122°52'0 0.0
2017-Sep-20 13:59N 46°02' W 122°52'0 0.0
2017-Sep-20 13:29N 46°02' W 122°52'0 0.0
2017-Sep-20 12:56N 46°02' W 122°52'0 0.0
2017-Sep-20 12:29N 46°02' W 122°52'0 0.0
2017-Sep-20 11:59N 46°02' W 122°52'0 0.0
2017-Sep-20 11:29N 46°02' W 122°52'0 0.0
2017-Sep-20 10:59N 46°02' W 122°52'0 0.0
2017-Sep-20 10:29N 46°02' W 122°52'0 0.1
2017-Sep-20 09:59N 46°02' W 122°52'0 0.1
2017-Sep-20 09:29N 46°02' W 122°52'0 0.0
2017-Sep-20 08:56N 46°02' W 122°52'0 0.0
2017-Sep-20 08:29N 46°02' W 122°52'0 0.0
2017-Sep-20 07:56N 46°02' W 122°52'0 0.0
2017-Sep-20 07:26N 46°02' W 122°52'0 0.0
2017-Sep-20 06:59N 46°02' W 122°52'0 0.0
2017-Sep-20 06:26N 46°02' W 122°52'0 0.0
2017-Sep-20 05:59N 46°02' W 122°52'0 0.0
2017-Sep-20 05:29N 46°02' W 122°52'0 0.0
2017-Sep-20 04:56N 46°02' W 122°52'0 0.0
2017-Sep-20 04:29N 46°02' W 122°52'0 0.0
2017-Sep-20 03:11N 46°02' W 122°52'0 0.0
2017-Sep-20 02:56N 46°02' W 122°52'0 0.0
2017-Sep-20 02:23N 46°02' W 122°52'0 0.0
2017-Sep-20 01:56N 46°02' W 122°52'0 0.1
2017-Sep-20 01:26N 46°02' W 122°52'0 0.1
2017-Sep-20 01:00N 46°02' W 122°52'4 8.2
2017-Sep-20 00:30N 46°05' W 122°55'510.3
2017-Sep-20 00:00N 46°08' W 123°01'713.1
2017-Sep-19 23:30N 46°11' W 123°09'713.4
2017-Sep-19 23:00N 46°09' W 123°18'611.1
2017-Sep-19 22:30N 46°11' W 123°25'612.2
2017-Sep-19 22:01N 46°16' W 123°29'713.4
2017-Sep-19 21:31N 46°16' W 123°38'713.3
2017-Sep-19 21:01N 46°13' W 123°47'4 9.0
2017-Sep-19 20:31N 46°11' W 123°53'612.2
2017-Sep-19 20:00N 46°15' W 124°00'510.5
2017-Sep-19 19:30N 46°13' W 124°08'510.5
2017-Sep-19 19:01N 46°12' W 124°15'5 9.7
2017-Sep-19 18:31N 46°12' W 124°22'1 2.2
2017-Sep-19 18:01N 46°11' W 124°21'1 2.2
2017-Sep-19 17:30N 46°11' W 124°20'1 2.3
2017-Sep-19 17:01N 46°10' W 124°19'2 3.1
2017-Sep-19 16:31N 46°10' W 124°21'2 3.4
2017-Sep-19 16:00N 46°11' W 124°23'2 3.1
2017-Sep-19 15:31N 46°12' W 124°25'1 2.4
2017-Sep-19 15:01N 46°13' W 124°26'1 2.1
2017-Sep-19 14:30N 46°13' W 124°24'1 1.9
2017-Sep-19 14:01N 46°14' W 124°23'1 1.8
2017-Sep-19 13:31N 46°13' W 124°24'  
Track history (hours):
 
Tides and Currents Weather Stations Pressure Air Temp Water Temp Dewpoint Dewpoint Depression Visibility Wind Speed Wind Dir Waves Ship Positions

Kalliopi L

Last reported at 2017-Sep-25 06:26 UTC. Time now 2017-Oct-17 22:31 UTC.
Position N 46°12' W 124°54'.
Warning: this ship's position is 22 days out of date.

Length 224 m; draft 12.3 m.

Type: Cargo ship. MMSI: 636012640.

Date/timePositionNaut miles runAvg speedWind from/ knotsBaromVisibWave heightAir tempDewpointWater temp
2017-Sep-25 06:26N 46°12' W 124°54'511.6
2017-Sep-25 06:01N 46°12' W 124°47'611.8
2017-Sep-25 05:30N 46°12' W 124°38'611.4
2017-Sep-25 05:00N 46°12' W 124°30'611.4
2017-Sep-25 04:30N 46°13' W 124°22'810.1
2017-Sep-25 03:41N 46°13' W 124°10'211.5
2017-Sep-25 03:31N 46°14' W 124°07'611.1
2017-Sep-25 03:00N 46°14' W 123°59'7 9.3
2017-Sep-25 02:14N 46°12' W 123°49'2 8.2
2017-Sep-25 02:00N 46°13' W 123°47'610.5
2017-Sep-25 01:28N 46°15' W 123°40'510.4
2017-Sep-25 01:00N 46°16' W 123°33'4 8.1
2017-Sep-25 00:30N 46°15' W 123°27'3 6.9
2017-Sep-25 00:00N 46°12' W 123°26'3 6.0
2017-Sep-24 23:30N 46°09' W 123°24'5 9.1
2017-Sep-24 23:00N 46°09' W 123°17'510.0
2017-Sep-24 22:30N 46°11' W 123°11'5 9.8
2017-Sep-24 22:00N 46°10' W 123°04'510.2
2017-Sep-24 21:30N 46°07' W 122°58'1 1.3
2017-Sep-24 20:58N 46°06' W 122°57'0 0.0
2017-Sep-24 20:22N 46°06' W 122°57'0 0.0
2017-Sep-24 19:58N 46°06' W 122°57'0 0.0
2017-Sep-24 19:10N 46°06' W 122°57'0 0.0
2017-Sep-24 18:56N 46°06' W 122°57'0 0.0
2017-Sep-24 18:20N 46°06' W 122°57'0 0.0
2017-Sep-24 17:59N 46°06' W 122°57'0 0.0
2017-Sep-24 17:29N 46°06' W 122°57'0 0.0
2017-Sep-24 16:59N 46°06' W 122°57'0 0.0
2017-Sep-24 16:22N 46°06' W 122°57'0 0.0
2017-Sep-24 15:58N 46°06' W 122°57'0 0.0
2017-Sep-24 15:28N 46°06' W 122°57'0 0.0
2017-Sep-24 14:58N 46°06' W 122°57'0 0.0
2017-Sep-24 14:28N 46°06' W 122°57'0 0.0
2017-Sep-24 13:58N 46°06' W 122°57'0 0.0
2017-Sep-24 13:28N 46°06' W 122°57'0 0.0
2017-Sep-24 12:58N 46°06' W 122°57'0 0.0
2017-Sep-24 12:16N 46°06' W 122°57'0 0.0
2017-Sep-24 11:37N 46°06' W 122°57'0 0.0
2017-Sep-24 11:28N 46°06' W 122°57'0 0.0
2017-Sep-24 10:52N 46°06' W 122°57'0 0.0
2017-Sep-24 10:19N 46°06' W 122°57'0 0.0
2017-Sep-24 09:55N 46°06' W 122°57'0 0.0
2017-Sep-24 09:25N 46°06' W 122°57'0 0.0
2017-Sep-24 08:52N 46°06' W 122°57'0 0.0
2017-Sep-24 08:25N 46°06' W 122°57'0 0.0
2017-Sep-24 07:58N 46°06' W 122°57'0 0.0
2017-Sep-24 07:28N 46°06' W 122°57'0 0.0
2017-Sep-24 06:58N 46°06' W 122°57'0 0.0
2017-Sep-24 06:28N 46°06' W 122°57'0 0.0
2017-Sep-24 05:58N 46°06' W 122°57'0 0.0
2017-Sep-24 05:25N 46°06' W 122°57'0 0.0
2017-Sep-24 04:49N 46°06' W 122°57'0 0.0
2017-Sep-24 04:25N 46°06' W 122°57'0 0.0
2017-Sep-24 03:52N 46°06' W 122°57'0 0.0
2017-Sep-24 03:28N 46°06' W 122°57'0 0.0
2017-Sep-24 02:58N 46°06' W 122°57'0 0.0
2017-Sep-24 02:28N 46°06' W 122°57'0 0.0
2017-Sep-24 01:58N 46°06' W 122°57'0 0.0
2017-Sep-24 01:25N 46°06' W 122°57'0 0.0
2017-Sep-24 00:58N 46°06' W 122°57'0 0.0
2017-Sep-24 00:28N 46°06' W 122°57'0 0.0
2017-Sep-23 23:58N 46°06' W 122°57'0 0.0
2017-Sep-23 23:22N 46°06' W 122°57'0 0.0
2017-Sep-23 22:58N 46°06' W 122°57'0 0.0
2017-Sep-23 22:25N 46°06' W 122°57'0 0.0
2017-Sep-23 21:52N 46°06' W 122°57'0 0.0
2017-Sep-23 21:19N 46°06' W 122°57'0 0.0
2017-Sep-23 20:19N 46°06' W 122°57'0 0.0
2017-Sep-23 19:58N 46°06' W 122°57'0 0.0
2017-Sep-22 01:58N 46°06' W 122°57'0 0.0
2017-Sep-22 01:28N 46°06' W 122°57'0 0.0
2017-Sep-22 00:58N 46°06' W 122°57'0 0.0
2017-Sep-22 00:28N 46°06' W 122°57'0 0.0
2017-Sep-21 23:58N 46°06' W 122°57'0 0.0
2017-Sep-21 23:22N 46°06' W 122°57'0 0.0
2017-Sep-21 22:55N 46°06' W 122°57'0 0.0
2017-Sep-21 22:28N 46°06' W 122°57'0 0.0
2017-Sep-21 21:58N 46°06' W 122°57'0 0.0
2017-Sep-21 21:28N 46°06' W 122°57'0 0.0
2017-Sep-21 20:58N 46°06' W 122°57'0 0.0
2017-Sep-21 20:28N 46°06' W 122°57'0 0.0
2017-Sep-21 19:58N 46°06' W 122°57'0 0.0
2017-Sep-21 19:28N 46°06' W 122°57'0 0.0
2017-Sep-21 18:58N 46°06' W 122°57'0 0.0
2017-Sep-21 17:55N 46°06' W 122°57'0 0.0
2017-Sep-21 17:28N 46°06' W 122°57'0 0.0
2017-Sep-21 16:58N 46°06' W 122°57'0 0.0
2017-Sep-21 16:22N 46°06' W 122°57'0 0.1
2017-Sep-21 15:55N 46°06' W 122°57'1 1.3
2017-Sep-21 15:30N 46°06' W 122°57'2 4.7
2017-Sep-21 15:00N 46°05' W 122°54'3 5.8
2017-Sep-21 14:30N 46°02' W 122°53'0 0.9
2017-Sep-21 13:59N 46°02' W 122°52'0 0.1
2017-Sep-21 13:29N 46°02' W 122°52'0 0.0
2017-Sep-21 12:59N 46°02' W 122°52'0 0.1
2017-Sep-21 12:29N 46°02' W 122°52'0 0.0
2017-Sep-21 11:59N 46°02' W 122°52'0 0.0
2017-Sep-21 11:29N 46°02' W 122°52'0 0.0
2017-Sep-21 10:59N 46°02' W 122°52'0 0.0
2017-Sep-21 10:26N 46°02' W 122°52'0 0.0
2017-Sep-21 09:59N 46°02' W 122°52'0 0.0
2017-Sep-21 09:29N 46°02' W 122°52'0 0.0
2017-Sep-21 08:59N 46°02' W 122°52'0 0.0
2017-Sep-21 08:26N 46°02' W 122°52'0 0.0
2017-Sep-21 07:59N 46°02' W 122°52'0 0.0
2017-Sep-21 07:29N 46°02' W 122°52'0 0.0
2017-Sep-21 06:50N 46°02' W 122°52'0 0.0
2017-Sep-21 06:26N 46°02' W 122°52'0 0.0
2017-Sep-21 05:59N 46°02' W 122°52'0 0.0
2017-Sep-21 05:29N 46°02' W 122°52'0 0.1
2017-Sep-21 04:56N 46°02' W 122°52'0 0.1
2017-Sep-21 04:26N 46°02' W 122°52'0 0.0
2017-Sep-21 03:50N 46°02' W 122°52'0 0.0
2017-Sep-21 03:29N 46°02' W 122°52'0 0.1
2017-Sep-21 02:56N 46°02' W 122°52'0 0.0
2017-Sep-21 01:35N 46°02' W 122°52'0 0.1
2017-Sep-21 01:29N 46°02' W 122°52'0 0.0
2017-Sep-21 00:59N 46°02' W 122°52'0 0.0
2017-Sep-21 00:20N 46°02' W 122°52'0 0.1
2017-Sep-20 23:59N 46°02' W 122°52'0 0.1
2017-Sep-20 23:26N 46°02' W 122°52'0 0.0
2017-Sep-20 22:56N 46°02' W 122°52'0 0.0
2017-Sep-20 22:29N 46°02' W 122°52'0 0.0
2017-Sep-20 21:53N 46°02' W 122°52'0 0.0
2017-Sep-20 21:20N 46°02' W 122°52'0 0.0
2017-Sep-20 20:59N 46°02' W 122°52'0 0.0
2017-Sep-20 20:26N 46°02' W 122°52'0 0.0
2017-Sep-20 19:59N 46°02' W 122°52'0 0.0
2017-Sep-20 19:29N 46°02' W 122°52'0 0.0
2017-Sep-20 18:56N 46°02' W 122°52'0 0.0
2017-Sep-20 18:29N 46°02' W 122°52'0 0.0
2017-Sep-20 17:59N 46°02' W 122°52'0 0.0
2017-Sep-20 17:29N 46°02' W 122°52'0 0.0
2017-Sep-20 16:59N 46°02' W 122°52'0 0.0
2017-Sep-20 16:29N 46°02' W 122°52'0 0.0
2017-Sep-20 15:59N 46°02' W 122°52'0 0.0
2017-Sep-20 15:26N 46°02' W 122°52'0 0.0
2017-Sep-20 14:59N 46°02' W 122°52'0 0.0
2017-Sep-20 13:59N 46°02' W 122°52'0 0.0
2017-Sep-20 13:29N 46°02' W 122°52'0 0.0
2017-Sep-20 12:56N 46°02' W 122°52'0 0.0
2017-Sep-20 12:29N 46°02' W 122°52'0 0.0
2017-Sep-20 11:59N 46°02' W 122°52'0 0.0
2017-Sep-20 11:29N 46°02' W 122°52'0 0.0
2017-Sep-20 10:59N 46°02' W 122°52'0 0.0
2017-Sep-20 10:29N 46°02' W 122°52'0 0.1
2017-Sep-20 09:59N 46°02' W 122°52'0 0.1
2017-Sep-20 09:29N 46°02' W 122°52'0 0.0
2017-Sep-20 08:56N 46°02' W 122°52'0 0.0
2017-Sep-20 08:29N 46°02' W 122°52'0 0.0
2017-Sep-20 07:56N 46°02' W 122°52'0 0.0
2017-Sep-20 07:26N 46°02' W 122°52'0 0.0
2017-Sep-20 06:59N 46°02' W 122°52'0 0.0
2017-Sep-20 06:26N 46°02' W 122°52'0 0.0
2017-Sep-20 05:59N 46°02' W 122°52'0 0.0
2017-Sep-20 05:29N 46°02' W 122°52'0 0.0
2017-Sep-20 04:56N 46°02' W 122°52'0 0.0
2017-Sep-20 04:29N 46°02' W 122°52'0 0.0
2017-Sep-20 03:11N 46°02' W 122°52'0 0.0
2017-Sep-20 02:56N 46°02' W 122°52'0 0.0
2017-Sep-20 02:23N 46°02' W 122°52'0 0.0
2017-Sep-20 01:56N 46°02' W 122°52'0 0.1
2017-Sep-20 01:26N 46°02' W 122°52'0 0.1
2017-Sep-20 01:00N 46°02' W 122°52'4 8.2
2017-Sep-20 00:30N 46°05' W 122°55'510.3
2017-Sep-20 00:00N 46°08' W 123°01'713.1
2017-Sep-19 23:30N 46°11' W 123°09'713.4
2017-Sep-19 23:00N 46°09' W 123°18'611.1
2017-Sep-19 22:30N 46°11' W 123°25'612.2
2017-Sep-19 22:01N 46°16' W 123°29'713.4
2017-Sep-19 21:31N 46°16' W 123°38'713.3
2017-Sep-19 21:01N 46°13' W 123°47'4 9.0
2017-Sep-19 20:31N 46°11' W 123°53'612.2
2017-Sep-19 20:00N 46°15' W 124°00'510.5
2017-Sep-19 19:30N 46°13' W 124°08'510.5
2017-Sep-19 19:01N 46°12' W 124°15'5 9.7
2017-Sep-19 18:31N 46°12' W 124°22'1 2.2
2017-Sep-19 18:01N 46°11' W 124°21'1 2.2
2017-Sep-19 17:30N 46°11' W 124°20'1 2.3
2017-Sep-19 17:01N 46°10' W 124°19'2 3.1
2017-Sep-19 16:31N 46°10' W 124°21'2 3.4
2017-Sep-19 16:00N 46°11' W 124°23'2 3.1
2017-Sep-19 15:31N 46°12' W 124°25'1 2.4
2017-Sep-19 15:01N 46°13' W 124°26'1 2.1
2017-Sep-19 14:30N 46°13' W 124°24'1 1.9
2017-Sep-19 14:01N 46°14' W 124°23'1 1.8
2017-Sep-19 13:31N 46°13' W 124°24'  

Dump ship's entire track history